createdAt,value
2017-12-03T00:01:51.709Z,0.10
2017-12-03T00:04:20.576Z,0.10
2017-12-03T00:06:49.567Z,0.10
2017-12-03T00:09:18.565Z,0.10
2017-12-03T00:11:47.586Z,0.10
2017-12-03T00:14:16.809Z,0.10
2017-12-03T00:16:45.796Z,0.20
2017-12-03T00:19:15.928Z,0.20
2017-12-03T00:21:45.690Z,0.20
2017-12-03T00:24:14.786Z,0.20
2017-12-03T00:26:44.252Z,0.20
2017-12-03T00:29:13.311Z,0.20
2017-12-03T00:31:43.174Z,0.20
2017-12-03T00:34:12.575Z,0.20
2017-12-03T00:36:41.588Z,0.20
2017-12-03T00:39:10.607Z,0.20
2017-12-03T00:41:39.636Z,0.30
2017-12-03T00:44:09.444Z,0.20
2017-12-03T00:46:39.585Z,0.20
2017-12-03T00:49:08.571Z,0.30
2017-12-03T00:51:37.587Z,0.30
2017-12-03T00:54:06.892Z,0.30
2017-12-03T00:56:35.873Z,0.40
2017-12-03T00:59:04.947Z,0.40
2017-12-03T01:01:35.068Z,0.40
2017-12-03T01:04:04.835Z,0.40
2017-12-03T01:06:33.889Z,0.40
2017-12-03T01:09:02.979Z,0.40
2017-12-03T01:11:31.984Z,0.40
2017-12-03T01:14:01.015Z,0.40
2017-12-03T01:16:30.033Z,0.40
2017-12-03T01:18:59.025Z,0.40
2017-12-03T01:21:28.057Z,0.50
2017-12-03T01:24:14.592Z,0.50
2017-12-03T01:26:45.089Z,0.50
2017-12-03T01:29:13.917Z,0.50
2017-12-03T01:31:42.892Z,0.50
2017-12-03T01:34:11.887Z,0.50
2017-12-03T01:36:41.160Z,0.50
2017-12-03T01:39:10.150Z,0.50
2017-12-03T01:41:39.907Z,0.50
2017-12-03T01:44:08.956Z,0.50
2017-12-03T01:46:38.703Z,0.50
2017-12-03T01:49:07.682Z,0.50
2017-12-03T01:51:36.926Z,0.50
2017-12-03T01:54:05.911Z,0.50
2017-12-03T01:56:34.715Z,0.50
2017-12-03T01:59:03.522Z,0.50
2017-12-03T02:01:32.499Z,0.50
2017-12-03T02:04:01.487Z,0.50
2017-12-03T02:06:29.924Z,0.50
2017-12-03T02:08:58.251Z,0.50
2017-12-03T02:11:27.060Z,0.50
2017-12-03T02:13:56.372Z,0.50
2017-12-03T02:16:26.137Z,0.50
2017-12-03T02:18:55.132Z,0.50
2017-12-03T02:21:23.865Z,0.50
2017-12-03T02:23:53.620Z,0.60
2017-12-03T02:26:22.608Z,0.60
2017-12-03T02:28:51.610Z,0.60
2017-12-03T02:31:20.600Z,0.60
2017-12-03T02:33:49.588Z,0.60
2017-12-03T02:36:18.593Z,0.60
2017-12-03T02:38:47.282Z,0.60
2017-12-03T02:41:16.708Z,0.50
2017-12-03T02:43:45.709Z,0.50
2017-12-03T02:46:14.708Z,0.50
2017-12-03T02:48:43.706Z,0.50
2017-12-03T02:51:13.326Z,0.50
2017-12-03T02:53:42.341Z,0.50
2017-12-03T02:56:11.335Z,0.50
2017-12-03T02:58:40.817Z,0.50
2017-12-03T03:01:09.792Z,0.50
2017-12-03T03:03:39.563Z,0.40
2017-12-03T03:06:08.241Z,0.40
2017-12-03T03:08:37.229Z,0.50
2017-12-03T03:11:06.215Z,0.50
2017-12-03T03:13:35.116Z,0.50
2017-12-03T03:16:04.103Z,0.50
2017-12-03T03:18:33.174Z,0.50
2017-12-03T03:21:02.341Z,0.50
2017-12-03T03:23:31.339Z,0.50
2017-12-03T03:26:00.382Z,0.50
2017-12-03T03:28:29.671Z,0.50
2017-12-03T03:30:58.667Z,0.50
2017-12-03T03:33:27.656Z,0.60
2017-12-03T03:35:56.480Z,0.60
2017-12-03T03:38:24.795Z,0.60
2017-12-03T03:40:54.562Z,0.60
2017-12-03T03:43:23.527Z,0.50
2017-12-03T03:45:53.268Z,0.50
2017-12-03T03:48:23.485Z,0.50
2017-12-03T03:50:52.459Z,0.50
2017-12-03T03:53:21.449Z,0.50
2017-12-03T03:55:49.964Z,0.60
2017-12-03T03:58:19.874Z,0.50
2017-12-03T04:00:48.209Z,0.50
2017-12-03T04:03:17.303Z,0.60
2017-12-03T04:05:47.091Z,0.60
2017-12-03T04:08:16.072Z,0.50
2017-12-03T04:10:44.714Z,0.60
2017-12-03T04:13:13.810Z,0.60
2017-12-03T04:15:42.463Z,0.60
2017-12-03T04:18:12.510Z,0.60
2017-12-03T04:20:41.502Z,0.60
2017-12-03T04:23:10.476Z,0.60
2017-12-03T04:25:40.423Z,0.60
2017-12-03T04:28:09.057Z,0.60
2017-12-03T04:30:37.854Z,0.60
2017-12-03T04:33:07.878Z,0.60
2017-12-03T04:35:37.302Z,0.60
2017-12-03T04:38:05.960Z,0.60
2017-12-03T04:40:34.295Z,0.60
2017-12-03T04:43:02.946Z,0.60
2017-12-03T04:45:31.619Z,0.60
2017-12-03T04:48:01.331Z,0.60
2017-12-03T04:50:30.421Z,0.60
2017-12-03T04:52:59.844Z,0.60
2017-12-03T04:55:28.278Z,0.60
2017-12-03T04:57:56.943Z,0.60
2017-12-03T05:00:25.263Z,0.60
2017-12-03T05:02:53.960Z,0.60
2017-12-03T05:05:23.201Z,0.60
2017-12-03T05:07:51.552Z,0.60
2017-12-03T05:10:21.183Z,0.60
2017-12-03T05:12:49.638Z,0.60
2017-12-03T05:15:18.737Z,0.70
2017-12-03T05:17:47.414Z,0.60
2017-12-03T05:20:16.499Z,0.60
2017-12-03T05:22:45.584Z,0.60
2017-12-03T05:25:14.494Z,0.60
2017-12-03T05:27:43.592Z,0.60
2017-12-03T05:30:12.686Z,0.60
2017-12-03T05:32:42.126Z,0.60
2017-12-03T05:35:10.455Z,0.60
2017-12-03T05:37:39.564Z,0.60
2017-12-03T05:40:08.981Z,0.60
2017-12-03T05:42:37.309Z,0.60
2017-12-03T05:45:05.673Z,0.60
2017-12-03T05:47:34.184Z,0.60
2017-12-03T05:50:02.544Z,0.70
2017-12-03T05:52:31.200Z,0.60
2017-12-03T05:54:59.552Z,0.60
2017-12-03T05:57:28.652Z,0.60
2017-12-03T05:59:56.975Z,0.60
2017-12-03T06:02:25.612Z,0.60
2017-12-03T06:04:54.704Z,0.70
2017-12-03T06:07:23.786Z,0.70
2017-12-03T06:09:53.513Z,0.70
2017-12-03T06:12:22.921Z,0.70
2017-12-03T06:14:51.250Z,0.70
2017-12-03T06:17:19.661Z,0.70
2017-12-03T06:19:48.757Z,0.70
2017-12-03T06:22:18.305Z,0.70
2017-12-03T06:24:46.466Z,0.70
2017-12-03T06:27:15.254Z,0.80
2017-12-03T06:29:43.912Z,0.80
2017-12-03T06:32:13.359Z,0.80
2017-12-03T06:34:41.999Z,0.80
2017-12-03T06:37:10.319Z,0.80
2017-12-03T06:39:39.535Z,0.80
2017-12-03T06:42:08.869Z,0.80
2017-12-03T06:44:38.075Z,0.80
2017-12-03T06:47:06.577Z,0.80
2017-12-03T06:49:36.002Z,0.80
2017-12-03T06:52:04.326Z,0.80
2017-12-03T06:54:32.958Z,0.80
2017-12-03T06:57:01.282Z,0.80
2017-12-03T06:59:29.598Z,0.80
2017-12-03T07:01:58.472Z,0.90
2017-12-03T07:04:28.216Z,0.90
2017-12-03T07:06:56.888Z,0.80
2017-12-03T07:09:26.299Z,0.90
2017-12-03T07:11:55.755Z,0.90
2017-12-03T07:14:24.068Z,0.90
2017-12-03T07:16:53.057Z,0.90
2017-12-03T07:19:22.141Z,0.90
2017-12-03T07:21:51.420Z,0.90
2017-12-03T07:24:20.868Z,0.90
2017-12-03T07:26:49.191Z,0.90
2017-12-03T07:29:17.882Z,1.00
2017-12-03T07:31:46.571Z,1.00
2017-12-03T07:34:14.718Z,1.00
2017-12-03T07:36:43.045Z,1.00
2017-12-03T07:39:11.741Z,1.00
2017-12-03T07:41:41.210Z,1.00
2017-12-03T07:44:09.334Z,1.00
2017-12-03T07:46:37.902Z,1.00
2017-12-03T07:49:07.225Z,1.00
2017-12-03T07:51:36.147Z,1.10
2017-12-03T07:54:04.674Z,1.00
2017-12-03T07:56:33.632Z,1.00
2017-12-03T07:59:02.347Z,1.00
2017-12-03T08:01:32.263Z,1.00
2017-12-03T08:04:00.620Z,1.00
2017-12-03T08:06:29.266Z,1.00
2017-12-03T08:08:59.261Z,1.10
2017-12-03T08:11:27.766Z,1.10
2017-12-03T08:13:57.289Z,1.10
2017-12-03T08:16:26.346Z,1.10
2017-12-03T08:18:54.514Z,1.10
2017-12-03T08:21:23.444Z,1.20
2017-12-03T08:23:52.069Z,1.20
2017-12-03T08:26:20.566Z,1.20
2017-12-03T08:28:51.463Z,1.20
2017-12-03T08:31:20.111Z,1.20
2017-12-03T08:33:48.434Z,1.20
2017-12-03T08:36:16.827Z,1.20
2017-12-03T08:38:45.164Z,1.20
2017-12-03T08:41:14.169Z,1.20
2017-12-03T08:43:42.418Z,1.20
2017-12-03T08:46:11.719Z,1.20
2017-12-03T08:48:41.365Z,1.20
2017-12-03T08:51:10.063Z,1.20
2017-12-03T08:53:38.699Z,1.20
2017-12-03T08:56:07.369Z,1.20
2017-12-03T08:58:36.787Z,1.20
2017-12-03T09:01:05.588Z,1.20
2017-12-03T09:03:33.914Z,1.20
2017-12-03T09:06:02.246Z,1.20
2017-12-03T09:08:30.869Z,1.20
2017-12-03T09:10:59.671Z,1.30
2017-12-03T09:13:29.194Z,1.30
2017-12-03T09:15:57.354Z,1.20
2017-12-03T09:18:26.446Z,1.30
2017-12-03T09:20:56.502Z,1.30
2017-12-03T09:23:25.176Z,1.30
2017-12-03T09:25:53.491Z,1.30
2017-12-03T09:28:22.138Z,1.30
2017-12-03T09:30:53.001Z,1.30
2017-12-03T09:33:22.105Z,1.30
2017-12-03T09:35:50.445Z,1.30
2017-12-03T09:38:19.924Z,1.30
2017-12-03T09:40:48.218Z,1.30
2017-12-03T09:43:18.492Z,1.30
2017-12-03T09:45:47.126Z,1.30
2017-12-03T09:48:28.152Z,1.30
2017-12-03T09:50:59.757Z,1.30
2017-12-03T09:53:28.851Z,1.40
2017-12-03T09:55:57.501Z,1.30
2017-12-03T09:58:26.190Z,1.40
2017-12-03T10:00:54.498Z,1.40
2017-12-03T10:03:24.349Z,1.40
2017-12-03T10:05:53.494Z,1.40
2017-12-03T10:08:22.779Z,1.40
2017-12-03T10:10:51.329Z,1.40
2017-12-03T10:13:20.076Z,1.40
2017-12-03T10:15:49.167Z,1.50
2017-12-03T10:18:18.871Z,1.50
2017-12-03T10:20:48.662Z,1.50
2017-12-03T10:23:17.475Z,1.50
2017-12-03T10:25:45.815Z,1.50
2017-12-03T10:28:14.522Z,1.50
2017-12-03T10:30:42.862Z,1.60
2017-12-03T10:33:11.337Z,1.70
2017-12-03T10:35:40.024Z,1.70
2017-12-03T10:38:15.298Z,1.70
2017-12-03T10:40:44.156Z,1.70
2017-12-03T10:43:13.970Z,1.80
2017-12-03T10:45:43.790Z,1.80
2017-12-03T10:48:15.285Z,1.90
2017-12-03T10:50:44.950Z,1.80
2017-12-03T10:53:14.130Z,1.90
2017-12-03T10:55:43.888Z,2.00
2017-12-03T10:58:13.023Z,2.00
2017-12-03T11:00:42.451Z,2.00
2017-12-03T11:03:11.273Z,2.00
2017-12-03T11:05:39.941Z,2.00
2017-12-03T11:08:08.604Z,2.00
2017-12-03T11:10:38.920Z,2.00
2017-12-03T11:15:08.984Z,1.90
2017-12-03T11:17:39.272Z,2.00
2017-12-03T11:20:08.096Z,2.00
2017-12-03T11:22:40.802Z,2.00
2017-12-03T11:25:13.480Z,2.00
2017-12-03T11:27:45.192Z,2.00
2017-12-03T11:30:17.668Z,2.10
2017-12-03T11:32:47.072Z,2.10
2017-12-03T11:35:16.992Z,2.10
2017-12-03T11:37:46.012Z,2.10
2017-12-03T11:40:15.112Z,2.20
2017-12-03T11:42:44.470Z,2.10
2017-12-03T11:45:14.195Z,2.10
2017-12-03T11:47:43.313Z,2.10
2017-12-03T11:50:12.827Z,2.10
2017-12-03T11:52:41.786Z,2.20
2017-12-03T11:55:10.758Z,2.20
2017-12-03T11:57:41.312Z,2.30
2017-12-03T12:00:10.393Z,2.20
2017-12-03T12:02:39.371Z,2.20
2017-12-03T12:05:09.290Z,2.20
2017-12-03T12:07:38.325Z,2.20
2017-12-03T12:10:07.301Z,2.20
2017-12-03T12:12:36.695Z,2.30
2017-12-03T12:15:05.682Z,2.30
2017-12-03T12:17:34.778Z,2.30
2017-12-03T12:20:04.732Z,2.30
2017-12-03T12:22:33.557Z,2.30
2017-12-03T12:25:02.553Z,2.30
2017-12-03T12:27:31.596Z,2.30
2017-12-03T12:30:01.351Z,2.40
2017-12-03T12:32:30.359Z,2.30
2017-12-03T12:34:59.814Z,2.30
2017-12-03T12:37:28.577Z,2.30
2017-12-03T12:39:57.487Z,2.30
2017-12-03T12:42:26.346Z,2.30
2017-12-03T12:44:56.255Z,2.40
2017-12-03T12:47:24.844Z,2.30
2017-12-03T12:49:53.527Z,2.30
2017-12-03T12:52:23.666Z,2.40
2017-12-03T12:54:52.925Z,2.40
2017-12-03T12:57:22.597Z,2.40
2017-12-03T12:59:52.522Z,2.40
2017-12-03T13:02:22.412Z,2.40
2017-12-03T13:04:52.202Z,2.50
2017-12-03T13:07:21.662Z,2.50
2017-12-03T13:09:51.382Z,2.40
2017-12-03T13:12:20.857Z,2.50
2017-12-03T13:14:50.366Z,2.50
2017-12-03T13:17:19.858Z,2.60
2017-12-03T13:19:49.423Z,2.60
2017-12-03T13:22:19.728Z,2.60
2017-12-03T13:24:52.220Z,2.60
2017-12-03T13:27:22.394Z,2.70
2017-12-03T13:29:51.827Z,2.70
2017-12-03T13:32:21.780Z,2.70
2017-12-03T13:34:51.195Z,2.60
2017-12-03T13:37:21.422Z,2.70
2017-12-03T13:39:51.618Z,2.70
2017-12-03T13:42:21.194Z,2.70
2017-12-03T13:44:50.631Z,2.70
2017-12-03T13:47:20.069Z,2.70
2017-12-03T13:49:49.675Z,2.70
2017-12-03T13:52:19.907Z,2.80
2017-12-03T13:54:49.351Z,2.70
2017-12-03T13:57:18.582Z,2.80
2017-12-03T13:59:48.604Z,2.70
2017-12-03T14:02:19.208Z,2.70
2017-12-03T14:04:48.638Z,2.80
2017-12-03T14:07:18.015Z,2.80
2017-12-03T14:09:47.749Z,2.80
2017-12-03T14:12:18.789Z,2.90
2017-12-03T14:14:48.603Z,2.80
2017-12-03T14:17:18.909Z,2.90
2017-12-03T14:19:48.531Z,2.90
2017-12-03T14:22:17.967Z,2.90
2017-12-03T14:24:47.755Z,2.90
2017-12-03T14:27:17.405Z,3.00
2017-12-03T14:29:46.988Z,3.00
2017-12-03T14:32:17.406Z,3.00
2017-12-03T14:34:47.630Z,3.00
2017-12-03T14:37:17.584Z,2.90
2017-12-03T14:39:47.040Z,3.00
2017-12-03T14:42:17.739Z,3.00
2017-12-03T14:44:48.818Z,2.90
2017-12-03T14:47:19.452Z,3.00
2017-12-03T14:49:49.666Z,3.00
2017-12-03T14:52:20.147Z,3.00
2017-12-03T14:54:49.772Z,3.00
2017-12-03T14:57:19.929Z,3.00
2017-12-03T14:59:49.365Z,3.00
2017-12-03T15:02:18.834Z,3.00
2017-12-03T15:04:48.594Z,3.00
2017-12-03T15:07:19.159Z,3.00
2017-12-03T15:09:50.205Z,3.00
2017-12-03T15:12:20.488Z,3.00
2017-12-03T15:14:49.597Z,3.00
2017-12-03T15:17:19.242Z,3.00
2017-12-03T15:19:48.590Z,2.90
2017-12-03T15:22:19.375Z,2.90
2017-12-03T15:24:48.722Z,3.00
2017-12-03T15:27:17.470Z,2.90
2017-12-03T15:29:46.308Z,3.00
2017-12-03T15:32:15.416Z,3.00
2017-12-03T15:34:44.167Z,3.10
2017-12-03T15:37:13.283Z,3.00
2017-12-03T15:39:42.230Z,3.00
2017-12-03T15:42:11.661Z,3.00
2017-12-03T15:44:40.564Z,3.00
2017-12-03T15:47:09.366Z,3.00
2017-12-03T15:49:37.766Z,3.00
2017-12-03T15:52:06.728Z,3.00
2017-12-03T15:54:35.596Z,3.00
2017-12-03T15:57:04.648Z,3.00
2017-12-03T15:59:33.631Z,3.00
2017-12-03T16:02:02.874Z,3.10
2017-12-03T16:04:32.031Z,3.10
2017-12-03T16:07:01.513Z,3.00
2017-12-03T16:09:30.608Z,3.00
2017-12-03T16:11:59.374Z,3.00
2017-12-03T16:14:28.695Z,3.00
2017-12-03T16:16:57.466Z,3.00
2017-12-03T16:19:26.896Z,3.10
2017-12-03T16:24:32.031Z,3.00
2017-12-03T16:27:02.076Z,3.10
2017-12-03T16:29:30.850Z,3.10
2017-12-03T16:31:59.848Z,3.10
2017-12-03T16:34:28.649Z,3.10
2017-12-03T16:36:57.908Z,3.10
2017-12-03T16:39:27.219Z,3.10
2017-12-03T16:41:56.746Z,3.10
2017-12-03T16:44:25.845Z,3.10
2017-12-03T16:46:55.391Z,3.10
2017-12-03T16:49:25.155Z,3.10
2017-12-03T16:51:54.613Z,3.20
2017-12-03T16:54:24.829Z,3.20
2017-12-03T16:56:54.716Z,3.20
2017-12-03T16:59:23.496Z,3.20
2017-12-03T17:01:52.937Z,3.20
2017-12-03T17:04:23.013Z,3.20
2017-12-03T17:06:52.446Z,3.20
2017-12-03T17:09:21.886Z,3.20
2017-12-03T17:11:51.417Z,3.30
2017-12-03T17:14:20.912Z,3.20
2017-12-03T17:16:50.356Z,3.20
2017-12-03T17:19:19.533Z,3.20
2017-12-03T17:21:48.974Z,3.30
2017-12-03T17:24:18.229Z,3.30
2017-12-03T17:26:46.813Z,3.30
2017-12-03T17:29:15.381Z,3.30
2017-12-03T17:31:44.213Z,3.30
2017-12-03T17:34:13.443Z,3.30
2017-12-03T17:36:42.882Z,3.40
2017-12-03T17:39:12.336Z,3.40
2017-12-03T17:41:42.097Z,3.50
2017-12-03T17:44:11.544Z,3.40
2017-12-03T17:46:41.058Z,3.50
2017-12-03T17:49:11.643Z,3.50
2017-12-03T17:51:41.579Z,3.50
2017-12-03T17:54:11.369Z,3.50
2017-12-03T17:56:40.831Z,3.50
2017-12-03T17:59:11.424Z,3.50
2017-12-03T18:01:41.621Z,3.50
2017-12-03T18:04:11.431Z,3.50
2017-12-03T18:06:40.907Z,3.50
2017-12-03T18:09:11.471Z,3.50
2017-12-03T18:11:40.936Z,3.50
2017-12-03T18:14:11.436Z,3.50
2017-12-03T18:16:41.489Z,3.50
2017-12-03T18:19:12.104Z,3.50
2017-12-03T18:21:41.521Z,3.50
2017-12-03T18:24:11.113Z,3.50
2017-12-03T18:26:43.585Z,3.50
2017-12-03T18:29:12.739Z,3.60
2017-12-03T18:31:41.828Z,3.60
2017-12-03T18:34:11.301Z,3.60
2017-12-03T18:36:41.090Z,3.60
2017-12-03T18:39:10.038Z,3.60
2017-12-03T18:41:39.289Z,3.70
2017-12-03T18:46:51.358Z,3.70
2017-12-03T18:49:31.710Z,3.60
2017-12-03T18:52:02.514Z,3.70
2017-12-03T18:54:32.000Z,3.70
2017-12-03T18:57:03.298Z,3.70
2017-12-03T18:59:36.113Z,3.70
2017-12-03T19:02:05.463Z,3.70
2017-12-03T19:04:34.171Z,3.70
2017-12-03T19:07:03.086Z,3.80
2017-12-03T19:09:46.054Z,3.80
2017-12-03T19:12:16.323Z,3.80
2017-12-03T19:14:45.459Z,3.80
2017-12-03T19:17:15.143Z,3.90
2017-12-03T19:19:44.471Z,3.90
2017-12-03T19:22:14.336Z,3.90
2017-12-03T19:24:43.787Z,3.90
2017-12-03T19:27:13.316Z,3.90
2017-12-03T19:29:42.794Z,3.90
2017-12-03T19:32:12.970Z,3.90
2017-12-03T19:34:42.493Z,3.90
2017-12-03T19:37:11.624Z,3.90
2017-12-03T19:39:42.814Z,3.90
2017-12-03T19:42:11.956Z,3.90
2017-12-03T19:44:41.391Z,3.90
2017-12-03T19:47:10.568Z,3.90
2017-12-03T19:49:43.467Z,3.90
2017-12-03T19:52:17.401Z,3.90
2017-12-03T19:54:47.344Z,3.90
2017-12-03T19:57:16.456Z,3.90
2017-12-03T19:59:46.006Z,3.90
2017-12-03T20:02:16.192Z,3.90
2017-12-03T20:04:45.290Z,3.90
2017-12-03T20:07:14.090Z,3.90
2017-12-03T20:09:44.302Z,3.90
2017-12-03T20:12:14.282Z,3.90
2017-12-03T20:14:43.400Z,3.90
2017-12-03T20:17:12.506Z,3.90
2017-12-03T20:19:41.968Z,3.90
2017-12-03T20:22:11.079Z,3.90
2017-12-03T20:24:40.186Z,3.90
2017-12-03T20:27:09.299Z,3.90
2017-12-03T20:29:38.055Z,3.90
2017-12-03T20:32:07.486Z,3.90
2017-12-03T20:34:36.686Z,3.90
2017-12-03T20:37:05.268Z,3.90
2017-12-03T20:39:33.873Z,3.90
2017-12-03T20:42:03.327Z,3.90
2017-12-03T20:44:32.235Z,3.90
2017-12-03T20:47:01.692Z,3.90
2017-12-03T20:49:31.240Z,3.90
2017-12-03T20:52:01.363Z,4.00
2017-12-03T20:54:30.622Z,4.00
2017-12-03T20:57:00.487Z,4.00
2017-12-03T20:59:29.922Z,4.00
2017-12-03T21:01:59.606Z,4.00
2017-12-03T21:04:29.479Z,4.00
2017-12-03T21:06:58.927Z,4.00
2017-12-03T21:09:28.062Z,4.00
2017-12-03T21:11:58.662Z,4.00
2017-12-03T21:14:28.912Z,4.00
2017-12-03T21:16:58.567Z,4.00
2017-12-03T21:19:27.829Z,4.00
2017-12-03T21:21:57.362Z,4.00
2017-12-03T21:24:26.769Z,4.00
2017-12-03T21:26:55.897Z,4.00
2017-12-03T21:29:25.621Z,4.10
2017-12-03T21:31:55.895Z,4.00
2017-12-03T21:34:25.335Z,4.00
2017-12-03T21:36:55.539Z,4.00
2017-12-03T21:39:25.326Z,4.00
2017-12-03T21:41:54.753Z,4.10
2017-12-03T21:44:24.348Z,4.10
2017-12-03T21:46:53.814Z,4.10
2017-12-03T21:49:23.307Z,4.10
2017-12-03T21:51:53.908Z,4.10
2017-12-03T21:54:23.662Z,4.10
2017-12-03T21:56:52.922Z,4.10
2017-12-03T21:59:22.930Z,4.10
2017-12-03T22:01:52.375Z,4.10
2017-12-03T22:04:22.147Z,4.10
2017-12-03T22:06:51.414Z,4.10
2017-12-03T22:09:20.889Z,4.10
2017-12-03T22:11:50.624Z,4.20
2017-12-03T22:14:20.896Z,4.20
2017-12-03T22:16:50.869Z,4.20
2017-12-03T22:19:22.672Z,4.20
2017-12-03T22:21:52.507Z,4.20
2017-12-03T22:24:21.936Z,4.20
2017-12-03T22:26:51.398Z,4.20
2017-12-03T22:29:20.893Z,4.20
2017-12-03T22:31:50.327Z,4.20
2017-12-03T22:34:19.558Z,4.20
2017-12-03T22:36:49.676Z,4.30
2017-12-03T22:39:19.141Z,4.30
2017-12-03T22:41:48.941Z,4.20
2017-12-03T22:44:18.746Z,4.20
2017-12-03T22:46:48.194Z,4.20
2017-12-03T22:49:17.635Z,4.20
2017-12-03T22:51:47.468Z,4.20
2017-12-03T22:54:16.912Z,4.10
2017-12-03T22:56:46.338Z,4.10
2017-12-03T22:59:15.804Z,4.10
2017-12-03T23:01:45.242Z,4.20
2017-12-03T23:04:14.030Z,4.20
2017-12-03T23:06:44.593Z,4.20
2017-12-03T23:09:14.039Z,4.20
2017-12-03T23:11:44.675Z,4.30
2017-12-03T23:14:14.182Z,4.20
2017-12-03T23:16:43.635Z,4.30
2017-12-03T23:19:13.255Z,4.20
2017-12-03T23:21:42.703Z,4.20
2017-12-03T23:24:12.185Z,4.20
2017-12-03T23:26:41.174Z,4.20
2017-12-03T23:29:10.443Z,4.30
2017-12-03T23:31:39.883Z,4.30
2017-12-03T23:34:09.429Z,4.30
2017-12-03T23:36:39.096Z,4.30
2017-12-03T23:39:08.594Z,4.30
2017-12-03T23:41:37.700Z,4.30
2017-12-03T23:44:07.151Z,4.30
2017-12-03T23:46:36.662Z,4.30
2017-12-03T23:49:06.186Z,4.30
2017-12-03T23:51:34.957Z,4.30
2017-12-03T23:54:04.207Z,4.30
2017-12-03T23:56:33.679Z,4.30
2017-12-03T23:59:03.330Z,4.30
